sensor_id;sensor_type;location;lat;lon;timestamp;pressure;altitude;pressure_sealevel;temperature;humidity
54546;BME280;40444;45.184;9.850;2023-03-08T18:09:30;99848.63;;;12.94;100.00
54546;BME280;40444;45.184;9.850;2023-03-08T18:11:59;99852.00;;;13.04;100.00
54546;BME280;40444;45.184;9.850;2023-03-08T18:14:27;99846.72;;;13.19;100.00
54546;BME280;40444;45.184;9.850;2023-03-08T18:17:06;99855.13;;;13.32;100.00
54546;BME280;40444;45.184;9.850;2023-03-08T18:19:35;99871.25;;;13.40;100.00
54546;BME280;40444;45.184;9.850;2023-03-08T18:22:04;99871.75;;;13.44;100.00
54546;BME280;40444;45.184;9.850;2023-03-08T18:24:33;99865.84;;;13.49;99.81
54546;BME280;40444;45.184;9.850;2023-03-08T18:27:02;99879.75;;;13.52;99.44
54546;BME280;40444;45.184;9.850;2023-03-08T18:29:34;99880.63;;;13.53;99.19
54546;BME280;40444;45.184;9.850;2023-03-08T18:32:03;99878.59;;;13.55;97.44
54546;BME280;40444;45.184;9.850;2023-03-08T18:34:31;99870.34;;;13.56;97.90
54546;BME280;40444;45.184;9.850;2023-03-08T18:37:00;99870.34;;;13.56;97.74
54546;BME280;40444;45.184;9.850;2023-03-08T18:39:29;99876.56;;;13.57;97.83
54546;BME280;40444;45.184;9.850;2023-03-08T18:41:57;99876.75;;;13.55;99.74
54546;BME280;40444;45.184;9.850;2023-03-08T18:44:28;99866.31;;;13.52;98.73
54546;BME280;40444;45.184;9.850;2023-03-08T18:46:57;99865.13;;;13.55;99.11
54546;BME280;40444;45.184;9.850;2023-03-08T18:49:25;99859.56;;;13.56;99.82
54546;BME280;40444;45.184;9.850;2023-03-08T18:51:54;99855.88;;;13.57;100.00
54546;BME280;40444;45.184;9.850;2023-03-08T18:54:23;99853.00;;;13.59;99.91
54546;BME280;40444;45.184;9.850;2023-03-08T18:56:52;99842.59;;;13.56;100.00
54546;BME280;40444;45.184;9.850;2023-03-08T18:59:22;99854.56;;;13.53;100.00
54546;BME280;40444;45.184;9.850;2023-03-08T19:01:50;99846.63;;;13.52;100.00
54546;BME280;40444;45.184;9.850;2023-03-08T19:04:22;99852.38;;;13.49;100.00
54546;BME280;40444;45.184;9.850;2023-03-08T19:06:50;99846.13;;;13.48;100.00
54546;BME280;40444;45.184;9.850;2023-03-08T19:09:19;99854.41;;;13.47;100.00
54546;BME280;40444;45.184;9.850;2023-03-08T19:11:49;99859.13;;;13.45;99.46
54546;BME280;40444;45.184;9.850;2023-03-08T19:14:17;99858.09;;;13.46;97.81
54546;BME280;40444;45.184;9.850;2023-03-08T19:16:46;99860.63;;;13.47;96.45
54546;BME280;40444;45.184;9.850;2023-03-08T19:19:15;99855.91;;;13.49;96.86
54546;BME280;40444;45.184;9.850;2023-03-08T19:21:45;99849.50;;;13.50;97.33
54546;BME280;40444;45.184;9.850;2023-03-08T19:24:15;99854.91;;;13.50;97.79
54546;BME280;40444;45.184;9.850;2023-03-08T19:26:45;99858.22;;;13.52;98.18
54546;BME280;40444;45.184;9.850;2023-03-08T19:29:23;99856.41;;;13.53;96.02
54546;BME280;40444;45.184;9.850;2023-03-08T19:31:55;99867.19;;;13.53;95.24
54546;BME280;40444;45.184;9.850;2023-03-08T19:34:27;99863.63;;;13.52;94.91
54546;BME280;40444;45.184;9.850;2023-03-08T19:36:56;99870.69;;;13.53;95.85
54546;BME280;40444;45.184;9.850;2023-03-08T19:39:27;99852.69;;;13.54;97.63
54546;BME280;40444;45.184;9.850;2023-03-08T19:42:00;99860.59;;;13.55;97.24
54546;BME280;40444;45.184;9.850;2023-03-08T19:44:29;99853.34;;;13.56;98.59
54546;BME280;40444;45.184;9.850;2023-03-08T19:46:58;99836.88;;;13.51;99.22
54546;BME280;40444;45.184;9.850;2023-03-08T19:49:28;99853.56;;;13.46;100.00
54546;BME280;40444;45.184;9.850;2023-03-08T19:51:59;99850.38;;;13.43;100.00
54546;BME280;40444;45.184;9.850;2023-03-08T19:54:29;99846.00;;;13.42;100.00
54546;BME280;40444;45.184;9.850;2023-03-08T19:56:58;99852.41;;;13.40;100.00
54546;BME280;40444;45.184;9.850;2023-03-08T19:59:27;99839.97;;;13.39;100.00
54546;BME280;40444;45.184;9.850;2023-03-08T20:01:56;99844.88;;;13.36;100.00
54546;BME280;40444;45.184;9.850;2023-03-08T20:04:24;99844.38;;;13.32;100.00
54546;BME280;40444;45.184;9.850;2023-03-08T20:06:52;99837.47;;;13.30;100.00
54546;BME280;40444;45.184;9.850;2023-03-08T20:09:21;99837.00;;;13.26;100.00
54546;BME280;40444;45.184;9.850;2023-03-08T20:11:51;99844.38;;;13.24;100.00
54546;BME280;40444;45.184;9.850;2023-03-08T20:14:26;99847.25;;;13.23;100.00
54546;BME280;40444;45.184;9.850;2023-03-08T20:16:54;99850.44;;;13.18;100.00
54546;BME280;40444;45.184;9.850;2023-03-08T20:19:23;99869.09;;;13.20;100.00
54546;BME280;40444;45.184;9.850;2023-03-08T20:21:52;99869.09;;;13.20;100.00
54546;BME280;40444;45.184;9.850;2023-03-08T20:24:20;99860.19;;;13.19;100.00
54546;BME280;40444;45.184;9.850;2023-03-08T20:26:50;99869.28;;;13.18;99.67
54546;BME280;40444;45.184;9.850;2023-03-08T20:29:18;99868.44;;;13.18;100.00
54546;BME280;40444;45.184;9.850;2023-03-08T20:31:46;99863.19;;;13.16;100.00
54546;BME280;40444;45.184;9.850;2023-03-08T20:34:15;99857.16;;;13.14;98.91
54546;BME280;40444;45.184;9.850;2023-03-08T20:36:43;99855.66;;;13.11;100.00
54546;BME280;40444;45.184;9.850;2023-03-08T20:39:11;99847.59;;;13.11;100.00
54546;BME280;40444;45.184;9.850;2023-03-08T20:41:40;99845.91;;;13.10;100.00
54546;BME280;40444;45.184;9.850;2023-03-08T20:44:10;99850.63;;;13.08;100.00
54546;BME280;40444;45.184;9.850;2023-03-08T20:46:39;99851.81;;;13.06;100.00
54546;BME280;40444;45.184;9.850;2023-03-08T20:49:07;99850.13;;;13.05;100.00
54546;BME280;40444;45.184;9.850;2023-03-08T20:51:38;99848.78;;;13.01;100.00
54546;BME280;40444;45.184;9.850;2023-03-08T20:54:07;99855.19;;;13.00;100.00
54546;BME280;40444;45.184;9.850;2023-03-08T20:56:36;99843.09;;;12.96;100.00
54546;BME280;40444;45.184;9.850;2023-03-08T20:59:05;99846.63;;;12.96;100.00
54546;BME280;40444;45.184;9.850;2023-03-08T21:01:33;99841.06;;;12.98;100.00
54546;BME280;40444;45.184;9.850;2023-03-08T21:04:04;99844.59;;;12.98;100.00
54546;BME280;40444;45.184;9.850;2023-03-08T21:06:33;99838.22;;;12.99;100.00
54546;BME280;40444;45.184;9.850;2023-03-08T21:09:02;99835.53;;;12.99;100.00
54546;BME280;40444;45.184;9.850;2023-03-08T21:11:31;99836.38;;;13.00;100.00
54546;BME280;40444;45.184;9.850;2023-03-08T21:14:00;99828.44;;;12.98;100.00
54546;BME280;40444;45.184;9.850;2023-03-08T21:16:29;99822.25;;;12.98;100.00
54546;BME280;40444;45.184;9.850;2023-03-08T21:18:59;99830.50;;;12.96;100.00
54546;BME280;40444;45.184;9.850;2023-03-08T21:21:34;99824.28;;;12.96;100.00
54546;BME280;40444;45.184;9.850;2023-03-08T21:24:09;99835.88;;;12.96;100.00
54546;BME280;40444;45.184;9.850;2023-03-08T21:26:39;99834.84;;;12.97;100.00
54546;BME280;40444;45.184;9.850;2023-03-08T21:29:12;99830.31;;;12.98;100.00
54546;BME280;40444;45.184;9.850;2023-03-08T21:31:46;99829.47;;;12.97;100.00
54546;BME280;40444;45.184;9.850;2023-03-08T21:34:16;99817.69;;;12.98;100.00
54546;BME280;40444;45.184;9.850;2023-03-08T21:36:45;99821.41;;;12.97;100.00
54546;BME280;40444;45.184;9.850;2023-03-08T21:39:13;99821.41;;;12.97;100.00
54546;BME280;40444;45.184;9.850;2023-03-08T21:41:43;99816.22;;;12.96;100.00
54546;BME280;40444;45.184;9.850;2023-03-08T21:44:15;99819.88;;;12.95;100.00
54546;BME280;40444;45.184;9.850;2023-03-08T21:46:44;99827.28;;;12.93;99.73
54546;BME280;40444;45.184;9.850;2023-03-08T21:49:19;99823.97;;;12.90;99.44
54546;BME280;40444;45.184;9.850;2023-03-08T21:51:50;99832.84;;;12.91;100.00
54546;BME280;40444;45.184;9.850;2023-03-08T21:54:20;99837.72;;;12.87;100.00
54546;BME280;40444;45.184;9.850;2023-03-08T21:56:49;99835.22;;;12.86;100.00
54546;BME280;40444;45.184;9.850;2023-03-08T21:59:17;99825.63;;;12.83;100.00
54546;BME280;40444;45.184;9.850;2023-03-08T22:01:46;99833.88;;;12.82;100.00
54546;BME280;40444;45.184;9.850;2023-03-08T22:04:16;99829.50;;;12.81;100.00
54546;BME280;40444;45.184;9.850;2023-03-08T22:06:45;99828.84;;;12.79;100.00
54546;BME280;40444;45.184;9.850;2023-03-08T22:09:13;99827.16;;;12.78;100.00
54546;BME280;40444;45.184;9.850;2023-03-08T22:11:42;99817.25;;;12.78;100.00
54546;BME280;40444;45.184;9.850;2023-03-08T22:14:11;99813.72;;;12.78;100.00
54546;BME280;40444;45.184;9.850;2023-03-08T22:16:39;99807.34;;;12.71;100.00
54546;BME280;40444;45.184;9.850;2023-03-08T22:19:08;99817.25;;;12.62;100.00
54546;BME280;40444;45.184;9.850;2023-03-08T22:21:37;99827.19;;;12.61;100.00
54546;BME280;40444;45.184;9.850;2023-03-08T22:24:06;99816.28;;;12.55;100.00
54546;BME280;40444;45.184;9.850;2023-03-08T22:26:35;99808.88;;;12.49;100.00
54546;BME280;40444;45.184;9.850;2023-03-08T22:29:03;99802.66;;;12.48;100.00
54546;BME280;40444;45.184;9.850;2023-03-08T22:31:32;99808.72;;;12.50;100.00
54546;BME280;40444;45.184;9.850;2023-03-08T22:34:01;99804.19;;;12.51;100.00
54546;BME280;40444;45.184;9.850;2023-03-08T22:36:29;99809.56;;;12.51;100.00
54546;BME280;40444;45.184;9.850;2023-03-08T22:38:57;99805.03;;;12.51;100.00
54546;BME280;40444;45.184;9.850;2023-03-08T22:41:26;99802.16;;;12.53;100.00
54546;BME280;40444;45.184;9.850;2023-03-08T22:43:55;99805.84;;;12.52;100.00
54546;BME280;40444;45.184;9.850;2023-03-08T22:46:25;99800.66;;;12.50;100.00
54546;BME280;40444;45.184;9.850;2023-03-08T22:48:56;99804.34;;;12.49;100.00
54546;BME280;40444;45.184;9.850;2023-03-08T22:51:25;99811.91;;;12.46;100.00
54546;BME280;40444;45.184;9.850;2023-03-08T22:53:55;99803.19;;;12.44;100.00
54546;BME280;40444;45.184;9.850;2023-03-08T22:56:27;99798.97;;;12.41;100.00
54546;BME280;40444;45.184;9.850;2023-03-08T22:59:01;99795.44;;;12.40;100.00
54546;BME280;40444;45.184;9.850;2023-03-08T23:01:30;99789.59;;;12.37;100.00
54546;BME280;40444;45.184;9.850;2023-03-08T23:04:01;99782.50;;;12.36;100.00
54546;BME280;40444;45.184;9.850;2023-03-08T23:06:31;99779.00;;;12.35;100.00
54546;BME280;40444;45.184;9.850;2023-03-08T23:09:03;99776.66;;;12.32;100.00
54546;BME280;40444;45.184;9.850;2023-03-08T23:11:35;99775.16;;;12.30;100.00
54546;BME280;40444;45.184;9.850;2023-03-08T23:14:05;99774.13;;;12.31;100.00
54546;BME280;40444;45.184;9.850;2023-03-08T23:16:34;99779.34;;;12.32;100.00
54546;BME280;40444;45.184;9.850;2023-03-08T23:19:03;99780.19;;;12.33;100.00
54546;BME280;40444;45.184;9.850;2023-03-08T23:21:31;99774.63;;;12.34;100.00
54546;BME280;40444;45.184;9.850;2023-03-08T23:24:00;99776.47;;;12.26;100.00
54546;BME280;40444;45.184;9.850;2023-03-08T23:26:29;99761.53;;;12.23;100.00
54546;BME280;40444;45.184;9.850;2023-03-08T23:29:00;99758.69;;;12.25;100.00
54546;BME280;40444;45.184;9.850;2023-03-08T23:31:34;99756.84;;;12.25;100.00
54546;BME280;40444;45.184;9.850;2023-03-08T23:34:04;99758.53;;;12.26;100.00
54546;BME280;40444;45.184;9.850;2023-03-08T23:36:33;99757.50;;;12.27;100.00
54546;BME280;40444;45.184;9.850;2023-03-08T23:39:01;99751.81;;;12.30;100.00
54546;BME280;40444;45.184;9.850;2023-03-08T23:41:31;99742.91;;;12.30;100.00
54546;BME280;40444;45.184;9.850;2023-03-08T23:44:00;99747.63;;;12.28;100.00
54546;BME280;40444;45.184;9.850;2023-03-08T23:46:29;99749.44;;;12.27;100.00
54546;BME280;40444;45.184;9.850;2023-03-08T23:48:59;99741.56;;;12.26;100.00
54546;BME280;40444;45.184;9.850;2023-03-08T23:51:30;99736.19;;;12.26;100.00
54546;BME280;40444;45.184;9.850;2023-03-08T23:54:00;99744.06;;;12.27;100.00
54546;BME280;40444;45.184;9.850;2023-03-08T23:56:32;99744.25;;;12.26;100.00
54546;BME280;40444;45.184;9.850;2023-03-08T23:59:16;99740.91;;;12.24;100.00
